Terminal Aerodrome Forecast
Issued by NWS

Home | Current Version | Previous Version | Text Only | Print | Product List | Glossary Off
Versions: 1 2 3 4 5 6 7 8 9 10 11 12 13 14 15 16 17

189
FTUS43 KBIS 061126
TAFMOT
TAF
KMOT 061126Z 0612/0712 24012KT P6SM BKN120 WS020/28045KT
     FM061800 24023G32KT P6SM BKN200 WS020/28050KT
     FM070100 26028G38KT P6SM VCSH OVC090
     FM070300 28037G49KT P6SM -SN OVC035
     FM070600 29037G49KT 3SM -SN BLSN OVC035
     FM071100 30034G45KT P6SM OVC015=

USA.gov is the U.S. government's official web portal to all federal, state and local government web resources and services.